Aviation Digital Data Service (ADDS)

Output produced by METARs form (2257 UTC 21 May 2022)
found at http://www.aviationweather.gov/metar/data/
 
EGVN 212250Z 24003KT CAVOK 11/07 Q1019 NOSIG
EGVN 212220Z 20002KT 9999 FEW043 12/07 Q1019 NOSIG RMK BLU BLU
EGVN 212150Z 23003KT CAVOK 13/07 Q1019 NOSIG RMK BLU BLU
EGVN 212120Z 23004KT CAVOK 13/07 Q1019 NOSIG RMK BLU BLU
EGVN 212050Z 21003KT CAVOK 14/07 Q1019 NOSIG RMK BLU BLU
EGVN 212020Z 24003KT CAVOK 14/07 Q1019 NOSIG RMK BLU BLU
TAF EGVN 212217Z 2200/2224 20004KT CAVOK 
     PROB30 2203/2207 7000 HZ